sensor_id;sensor_type;location;lat;lon;timestamp;P1;durP1;ratioP1;P2;durP2;ratioP2
7406;SDS011;3745;56.964;24.128;2023-04-19T00:01:35;9.63;;;3.38;;
7406;SDS011;3745;56.964;24.128;2023-04-19T00:04:00;4.75;;;2.63;;
7406;SDS011;3745;56.964;24.128;2023-04-19T00:06:27;6.28;;;2.90;;
7406;SDS011;3745;56.964;24.128;2023-04-19T00:08:54;3.70;;;2.83;;
7406;SDS011;3745;56.964;24.128;2023-04-19T00:11:20;5.80;;;3.30;;
7406;SDS011;3745;56.964;24.128;2023-04-19T00:13:46;6.82;;;2.97;;
7406;SDS011;3745;56.964;24.128;2023-04-19T00:16:13;3.25;;;2.95;;
7406;SDS011;3745;56.964;24.128;2023-04-19T00:18:39;3.72;;;2.80;;
7406;SDS011;3745;56.964;24.128;2023-04-19T00:21:04;3.15;;;2.85;;
7406;SDS011;3745;56.964;24.128;2023-04-19T00:23:30;7.50;;;2.95;;
7406;SDS011;3745;56.964;24.128;2023-04-19T00:25:56;4.95;;;3.08;;
7406;SDS011;3745;56.964;24.128;2023-04-19T00:28:22;3.17;;;2.97;;
7406;SDS011;3745;56.964;24.128;2023-04-19T00:30:48;10.70;;;3.17;;
7406;SDS011;3745;56.964;24.128;2023-04-19T00:33:14;6.28;;;3.58;;
7406;SDS011;3745;56.964;24.128;2023-04-19T00:35:40;6.13;;;3.08;;
7406;SDS011;3745;56.964;24.128;2023-04-19T00:38:06;4.60;;;2.90;;
7406;SDS011;3745;56.964;24.128;2023-04-19T00:40:32;7.25;;;3.08;;
7406;SDS011;3745;56.964;24.128;2023-04-19T00:42:57;3.00;;;2.80;;
7406;SDS011;3745;56.964;24.128;2023-04-19T00:45:24;3.03;;;2.63;;
7406;SDS011;3745;56.964;24.128;2023-04-19T00:47:50;3.00;;;2.80;;
7406;SDS011;3745;56.964;24.128;2023-04-19T00:50:16;5.18;;;3.20;;
7406;SDS011;3745;56.964;24.128;2023-04-19T00:52:42;4.07;;;3.05;;
7406;SDS011;3745;56.964;24.128;2023-04-19T00:55:08;4.82;;;3.22;;
7406;SDS011;3745;56.964;24.128;2023-04-19T00:57:34;4.63;;;2.88;;
7406;SDS011;3745;56.964;24.128;2023-04-19T01:00:01;4.20;;;3.00;;
7406;SDS011;3745;56.964;24.128;2023-04-19T01:02:30;4.20;;;2.90;;
7406;SDS011;3745;56.964;24.128;2023-04-19T01:04:56;3.50;;;3.20;;
7406;SDS011;3745;56.964;24.128;2023-04-19T01:07:21;5.22;;;3.08;;
7406;SDS011;3745;56.964;24.128;2023-04-19T01:09:47;3.53;;;2.83;;
7406;SDS011;3745;56.964;24.128;2023-04-19T01:12:13;4.55;;;2.97;;
7406;SDS011;3745;56.964;24.128;2023-04-19T01:14:39;3.08;;;2.88;;
7406;SDS011;3745;56.964;24.128;2023-04-19T01:17:05;3.30;;;2.80;;
7406;SDS011;3745;56.964;24.128;2023-04-19T01:19:31;3.63;;;2.72;;
7406;SDS011;3745;56.964;24.128;2023-04-19T01:21:59;3.95;;;2.47;;
7406;SDS011;3745;56.964;24.128;2023-04-19T01:24:27;3.40;;;2.80;;
7406;SDS011;3745;56.964;24.128;2023-04-19T01:26:52;3.50;;;2.47;;
7406;SDS011;3745;56.964;24.128;2023-04-19T01:29:18;4.13;;;2.95;;
7406;SDS011;3745;56.964;24.128;2023-04-19T01:31:46;2.88;;;2.67;;
7406;SDS011;3745;56.964;24.128;2023-04-19T01:34:15;2.70;;;2.22;;
7406;SDS011;3745;56.964;24.128;2023-04-19T01:36:41;3.35;;;3.05;;
7406;SDS011;3745;56.964;24.128;2023-04-19T01:39:07;3.05;;;2.85;;
7406;SDS011;3745;56.964;24.128;2023-04-19T01:41:32;2.67;;;2.47;;
7406;SDS011;3745;56.964;24.128;2023-04-19T01:43:58;3.42;;;2.45;;
7406;SDS011;3745;56.964;24.128;2023-04-19T01:46:24;4.07;;;3.42;;
7406;SDS011;3745;56.964;24.128;2023-04-19T01:48:50;2.65;;;2.50;;
7406;SDS011;3745;56.964;24.128;2023-04-19T01:51:15;2.55;;;2.35;;
7406;SDS011;3745;56.964;24.128;2023-04-19T01:53:41;3.05;;;2.85;;
7406;SDS011;3745;56.964;24.128;2023-04-19T01:56:07;2.60;;;2.40;;
7406;SDS011;3745;56.964;24.128;2023-04-19T01:58:32;2.83;;;2.60;;
7406;SDS011;3745;56.964;24.128;2023-04-19T02:00:58;5.45;;;2.85;;
7406;SDS011;3745;56.964;24.128;2023-04-19T02:03:23;3.35;;;2.72;;
7406;SDS011;3745;56.964;24.128;2023-04-19T02:05:49;5.38;;;3.00;;
7406;SDS011;3745;56.964;24.128;2023-04-19T02:08:14;3.83;;;2.95;;
7406;SDS011;3745;56.964;24.128;2023-04-19T02:10:40;5.50;;;3.88;;
7406;SDS011;3745;56.964;24.128;2023-04-19T02:13:06;6.60;;;4.53;;
7406;SDS011;3745;56.964;24.128;2023-04-19T02:15:31;6.88;;;4.30;;
7406;SDS011;3745;56.964;24.128;2023-04-19T02:17:57;3.92;;;3.60;;
7406;SDS011;3745;56.964;24.128;2023-04-19T02:20:24;4.15;;;3.20;;
7406;SDS011;3745;56.964;24.128;2023-04-19T02:22:49;5.00;;;2.75;;
7406;SDS011;3745;56.964;24.128;2023-04-19T02:25:15;4.03;;;2.63;;
7406;SDS011;3745;56.964;24.128;2023-04-19T02:27:41;3.05;;;2.58;;
7406;SDS011;3745;56.964;24.128;2023-04-19T02:30:06;3.55;;;2.40;;
7406;SDS011;3745;56.964;24.128;2023-04-19T02:32:33;3.38;;;2.72;;
7406;SDS011;3745;56.964;24.128;2023-04-19T02:34:58;5.30;;;2.92;;
7406;SDS011;3745;56.964;24.128;2023-04-19T02:37:23;3.55;;;2.67;;
7406;SDS011;3745;56.964;24.128;2023-04-19T02:39:49;5.00;;;2.85;;
7406;SDS011;3745;56.964;24.128;2023-04-19T02:42:15;6.15;;;3.15;;
7406;SDS011;3745;56.964;24.128;2023-04-19T02:44:40;11.60;;;2.85;;
7406;SDS011;3745;56.964;24.128;2023-04-19T02:47:06;3.95;;;3.13;;
7406;SDS011;3745;56.964;24.128;2023-04-19T02:49:32;3.42;;;2.63;;
7406;SDS011;3745;56.964;24.128;2023-04-19T02:52:00;3.20;;;2.90;;
7406;SDS011;3745;56.964;24.128;2023-04-19T02:54:26;3.10;;;2.80;;
7406;SDS011;3745;56.964;24.128;2023-04-19T02:56:51;4.78;;;2.90;;
7406;SDS011;3745;56.964;24.128;2023-04-19T02:59:17;4.88;;;2.92;;
7406;SDS011;3745;56.964;24.128;2023-04-19T03:01:42;5.00;;;3.50;;
7406;SDS011;3745;56.964;24.128;2023-04-19T03:04:08;5.50;;;3.72;;
7406;SDS011;3745;56.964;24.128;2023-04-19T03:06:33;6.28;;;3.88;;
7406;SDS011;3745;56.964;24.128;2023-04-19T03:08:59;12.43;;;4.47;;
7406;SDS011;3745;56.964;24.128;2023-04-19T03:11:24;7.20;;;4.10;;
7406;SDS011;3745;56.964;24.128;2023-04-19T03:13:50;6.30;;;3.97;;
7406;SDS011;3745;56.964;24.128;2023-04-19T03:16:15;3.72;;;3.38;;
7406;SDS011;3745;56.964;24.128;2023-04-19T03:18:41;4.18;;;2.65;;
7406;SDS011;3745;56.964;24.128;2023-04-19T03:21:07;5.00;;;3.10;;
7406;SDS011;3745;56.964;24.128;2023-04-19T03:23:33;2.50;;;2.38;;
7406;SDS011;3745;56.964;24.128;2023-04-19T03:25:59;5.20;;;2.80;;
7406;SDS011;3745;56.964;24.128;2023-04-19T03:28:25;9.32;;;3.03;;
7406;SDS011;3745;56.964;24.128;2023-04-19T03:30:50;5.63;;;3.40;;
7406;SDS011;3745;56.964;24.128;2023-04-19T03:33:16;6.43;;;3.90;;
7406;SDS011;3745;56.964;24.128;2023-04-19T03:35:42;7.05;;;4.00;;
7406;SDS011;3745;56.964;24.128;2023-04-19T03:38:08;6.28;;;3.85;;
7406;SDS011;3745;56.964;24.128;2023-04-19T03:40:35;6.50;;;4.28;;
7406;SDS011;3745;56.964;24.128;2023-04-19T03:43:01;10.68;;;4.95;;
7406;SDS011;3745;56.964;24.128;2023-04-19T03:45:27;6.32;;;4.28;;
7406;SDS011;3745;56.964;24.128;2023-04-19T03:47:52;11.93;;;4.03;;
7406;SDS011;3745;56.964;24.128;2023-04-19T03:50:18;4.28;;;3.35;;
7406;SDS011;3745;56.964;24.128;2023-04-19T03:52:43;5.75;;;3.42;;
7406;SDS011;3745;56.964;24.128;2023-04-19T03:55:09;3.80;;;2.78;;
7406;SDS011;3745;56.964;24.128;2023-04-19T03:57:36;6.55;;;3.08;;
7406;SDS011;3745;56.964;24.128;2023-04-19T04:00:03;4.95;;;2.50;;
7406;SDS011;3745;56.964;24.128;2023-04-19T04:02:32;5.13;;;3.70;;
7406;SDS011;3745;56.964;24.128;2023-04-19T04:05:00;5.65;;;3.50;;
7406;SDS011;3745;56.964;24.128;2023-04-19T04:07:26;5.15;;;3.40;;
7406;SDS011;3745;56.964;24.128;2023-04-19T04:09:52;5.28;;;3.28;;
7406;SDS011;3745;56.964;24.128;2023-04-19T04:12:17;5.18;;;4.03;;
7406;SDS011;3745;56.964;24.128;2023-04-19T04:14:42;4.75;;;3.22;;
7406;SDS011;3745;56.964;24.128;2023-04-19T04:17:08;5.40;;;2.88;;
7406;SDS011;3745;56.964;24.128;2023-04-19T04:19:33;4.07;;;3.50;;
7406;SDS011;3745;56.964;24.128;2023-04-19T04:21:59;4.25;;;3.38;;
7406;SDS011;3745;56.964;24.128;2023-04-19T04:24:24;5.82;;;4.00;;
7406;SDS011;3745;56.964;24.128;2023-04-19T04:26:52;6.57;;;3.90;;
7406;SDS011;3745;56.964;24.128;2023-04-19T04:29:17;7.00;;;4.22;;
7406;SDS011;3745;56.964;24.128;2023-04-19T04:31:43;6.93;;;4.20;;
7406;SDS011;3745;56.964;24.128;2023-04-19T04:34:08;5.03;;;3.60;;
7406;SDS011;3745;56.964;24.128;2023-04-19T04:36:34;3.78;;;2.80;;
7406;SDS011;3745;56.964;24.128;2023-04-19T04:39:03;6.25;;;3.70;;
7406;SDS011;3745;56.964;24.128;2023-04-19T04:41:30;6.57;;;3.10;;
7406;SDS011;3745;56.964;24.128;2023-04-19T04:43:58;7.60;;;3.13;;
7406;SDS011;3745;56.964;24.128;2023-04-19T04:46:25;3.83;;;3.10;;
7406;SDS011;3745;56.964;24.128;2023-04-19T04:48:51;5.47;;;3.00;;
7406;SDS011;3745;56.964;24.128;2023-04-19T04:51:17;6.53;;;3.33;;
7406;SDS011;3745;56.964;24.128;2023-04-19T04:53:43;4.18;;;3.53;;
7406;SDS011;3745;56.964;24.128;2023-04-19T04:56:08;6.30;;;3.30;;
7406;SDS011;3745;56.964;24.128;2023-04-19T04:58:34;5.35;;;3.45;;
7406;SDS011;3745;56.964;24.128;2023-04-19T05:01:00;6.63;;;3.35;;
7406;SDS011;3745;56.964;24.128;2023-04-19T05:03:25;7.95;;;3.83;;
7406;SDS011;3745;56.964;24.128;2023-04-19T05:05:51;5.68;;;3.30;;
7406;SDS011;3745;56.964;24.128;2023-04-19T05:08:17;7.32;;;4.07;;
7406;SDS011;3745;56.964;24.128;2023-04-19T05:10:42;6.85;;;3.83;;
7406;SDS011;3745;56.964;24.128;2023-04-19T05:13:08;5.18;;;3.58;;
7406;SDS011;3745;56.964;24.128;2023-04-19T05:15:33;6.75;;;4.43;;
7406;SDS011;3745;56.964;24.128;2023-04-19T05:17:59;6.38;;;4.10;;
7406;SDS011;3745;56.964;24.128;2023-04-19T05:20:24;8.82;;;3.60;;
7406;SDS011;3745;56.964;24.128;2023-04-19T05:22:55;9.93;;;2.90;;
7406;SDS011;3745;56.964;24.128;2023-04-19T05:25:21;5.10;;;3.40;;
7406;SDS011;3745;56.964;24.128;2023-04-19T05:27:47;4.40;;;3.15;;
7406;SDS011;3745;56.964;24.128;2023-04-19T05:30:13;4.68;;;3.22;;
7406;SDS011;3745;56.964;24.128;2023-04-19T05:32:38;5.35;;;3.25;;
7406;SDS011;3745;56.964;24.128;2023-04-19T05:35:04;3.92;;;3.17;;
7406;SDS011;3745;56.964;24.128;2023-04-19T05:37:30;4.82;;;3.75;;
7406;SDS011;3745;56.964;24.128;2023-04-19T05:39:56;6.10;;;3.90;;
7406;SDS011;3745;56.964;24.128;2023-04-19T05:42:22;3.75;;;3.40;;
7406;SDS011;3745;56.964;24.128;2023-04-19T05:44:47;5.18;;;3.50;;
7406;SDS011;3745;56.964;24.128;2023-04-19T05:47:13;5.32;;;3.78;;
7406;SDS011;3745;56.964;24.128;2023-04-19T05:49:40;6.40;;;3.30;;
7406;SDS011;3745;56.964;24.128;2023-04-19T05:52:05;7.85;;;3.17;;
7406;SDS011;3745;56.964;24.128;2023-04-19T05:54:31;8.05;;;3.20;;
7406;SDS011;3745;56.964;24.128;2023-04-19T05:57:00;7.53;;;3.40;;
7406;SDS011;3745;56.964;24.128;2023-04-19T05:59:26;5.97;;;2.90;;
7406;SDS011;3745;56.964;24.128;2023-04-19T06:01:52;4.25;;;3.28;;
7406;SDS011;3745;56.964;24.128;2023-04-19T06:04:20;3.20;;;2.65;;
7406;SDS011;3745;56.964;24.128;2023-04-19T06:06:46;3.85;;;2.97;;
7406;SDS011;3745;56.964;24.128;2023-04-19T06:09:11;3.35;;;3.05;;
7406;SDS011;3745;56.964;24.128;2023-04-19T06:11:38;10.52;;;3.58;;
7406;SDS011;3745;56.964;24.128;2023-04-19T06:14:04;6.82;;;3.63;;
7406;SDS011;3745;56.964;24.128;2023-04-19T06:16:30;6.50;;;3.70;;
7406;SDS011;3745;56.964;24.128;2023-04-19T06:18:55;7.00;;;3.78;;
7406;SDS011;3745;56.964;24.128;2023-04-19T06:21:21;9.43;;;3.10;;
7406;SDS011;3745;56.964;24.128;2023-04-19T06:23:47;3.03;;;2.80;;
7406;SDS011;3745;56.964;24.128;2023-04-19T06:26:12;3.75;;;3.33;;
7406;SDS011;3745;56.964;24.128;2023-04-19T06:28:38;5.10;;;2.97;;
7406;SDS011;3745;56.964;24.128;2023-04-19T06:31:03;6.90;;;3.20;;
7406;SDS011;3745;56.964;24.128;2023-04-19T06:33:29;6.15;;;3.35;;
7406;SDS011;3745;56.964;24.128;2023-04-19T06:35:55;8.80;;;2.85;;
7406;SDS011;3745;56.964;24.128;2023-04-19T06:38:21;4.85;;;3.15;;
7406;SDS011;3745;56.964;24.128;2023-04-19T06:40:46;3.53;;;3.03;;
7406;SDS011;3745;56.964;24.128;2023-04-19T06:43:12;9.55;;;3.33;;
7406;SDS011;3745;56.964;24.128;2023-04-19T06:45:37;5.20;;;3.30;;
7406;SDS011;3745;56.964;24.128;2023-04-19T06:48:03;7.90;;;3.85;;
7406;SDS011;3745;56.964;24.128;2023-04-19T06:50:29;4.47;;;2.80;;
7406;SDS011;3745;56.964;24.128;2023-04-19T06:52:55;5.28;;;3.47;;
7406;SDS011;3745;56.964;24.128;2023-04-19T06:55:21;5.45;;;3.08;;
7406;SDS011;3745;56.964;24.128;2023-04-19T06:57:46;5.75;;;3.03;;
7406;SDS011;3745;56.964;24.128;2023-04-19T07:00:12;3.25;;;2.95;;
7406;SDS011;3745;56.964;24.128;2023-04-19T07:02:38;9.50;;;3.63;;
7406;SDS011;3745;56.964;24.128;2023-04-19T07:05:04;17.42;;;8.02;;
7406;SDS011;3745;56.964;24.128;2023-04-19T07:07:32;4.20;;;3.20;;
7406;SDS011;3745;56.964;24.128;2023-04-19T07:09:57;6.57;;;3.05;;
7406;SDS011;3745;56.964;24.128;2023-04-19T07:12:23;3.58;;;3.20;;
7406;SDS011;3745;56.964;24.128;2023-04-19T07:18:10;8.13;;;3.20;;
7406;SDS011;3745;56.964;24.128;2023-04-19T07:20:38;6.72;;;3.30;;
7406;SDS011;3745;56.964;24.128;2023-04-19T07:23:08;4.88;;;3.08;;
7406;SDS011;3745;56.964;24.128;2023-04-19T07:25:34;3.42;;;2.97;;
7406;SDS011;3745;56.964;24.128;2023-04-19T07:27:59;7.33;;;3.87;;
7406;SDS011;3745;56.964;24.128;2023-04-19T07:30:25;3.55;;;3.13;;
7406;SDS011;3745;56.964;24.128;2023-04-19T07:32:51;7.65;;;3.60;;
7406;SDS011;3745;56.964;24.128;2023-04-19T07:35:17;4.70;;;2.88;;
7406;SDS011;3745;56.964;24.128;2023-04-19T07:37:43;3.60;;;3.13;;
7406;SDS011;3745;56.964;24.128;2023-04-19T07:40:09;10.55;;;3.30;;
7406;SDS011;3745;56.964;24.128;2023-04-19T07:42:35;5.65;;;3.35;;
7406;SDS011;3745;56.964;24.128;2023-04-19T07:45:00;8.18;;;3.10;;
7406;SDS011;3745;56.964;24.128;2023-04-19T07:47:26;7.93;;;3.45;;
7406;SDS011;3745;56.964;24.128;2023-04-19T07:49:52;5.78;;;3.42;;
7406;SDS011;3745;56.964;24.128;2023-04-19T07:52:17;7.15;;;3.55;;
7406;SDS011;3745;56.964;24.128;2023-04-19T07:54:43;3.30;;;3.00;;
7406;SDS011;3745;56.964;24.128;2023-04-19T07:57:09;4.60;;;3.08;;
7406;SDS011;3745;56.964;24.128;2023-04-19T07:59:34;7.65;;;2.85;;
7406;SDS011;3745;56.964;24.128;2023-04-19T08:02:00;4.40;;;3.10;;
7406;SDS011;3745;56.964;24.128;2023-04-19T08:04:26;7.78;;;3.10;;
7406;SDS011;3745;56.964;24.128;2023-04-19T08:06:52;3.55;;;3.13;;
7406;SDS011;3745;56.964;24.128;2023-04-19T08:09:18;6.15;;;2.90;;
7406;SDS011;3745;56.964;24.128;2023-04-19T08:11:43;3.42;;;3.13;;
7406;SDS011;3745;56.964;24.128;2023-04-19T08:14:09;10.18;;;3.70;;
7406;SDS011;3745;56.964;24.128;2023-04-19T08:16:35;7.45;;;3.38;;
7406;SDS011;3745;56.964;24.128;2023-04-19T08:19:01;7.07;;;3.75;;
7406;SDS011;3745;56.964;24.128;2023-04-19T08:21:26;6.13;;;3.55;;
7406;SDS011;3745;56.964;24.128;2023-04-19T08:23:52;3.63;;;3.15;;
7406;SDS011;3745;56.964;24.128;2023-04-19T08:26:17;7.72;;;3.80;;
7406;SDS011;3745;56.964;24.128;2023-04-19T08:28:43;7.18;;;3.38;;
7406;SDS011;3745;56.964;24.128;2023-04-19T08:31:09;4.25;;;3.85;;
7406;SDS011;3745;56.964;24.128;2023-04-19T08:33:34;4.35;;;3.45;;
7406;SDS011;3745;56.964;24.128;2023-04-19T08:36:00;4.43;;;3.58;;
7406;SDS011;3745;56.964;24.128;2023-04-19T08:38:26;6.30;;;4.30;;
7406;SDS011;3745;56.964;24.128;2023-04-19T08:40:52;6.10;;;4.03;;
7406;SDS011;3745;56.964;24.128;2023-04-19T08:43:21;7.50;;;3.80;;
7406;SDS011;3745;56.964;24.128;2023-04-19T08:45:50;10.60;;;4.20;;
7406;SDS011;3745;56.964;24.128;2023-04-19T08:48:16;7.38;;;4.00;;
7406;SDS011;3745;56.964;24.128;2023-04-19T08:50:42;5.50;;;4.57;;
7406;SDS011;3745;56.964;24.128;2023-04-19T08:53:10;10.75;;;3.92;;
7406;SDS011;3745;56.964;24.128;2023-04-19T08:55:37;4.75;;;4.13;;
7406;SDS011;3745;56.964;24.128;2023-04-19T08:58:05;6.85;;;4.32;;
7406;SDS011;3745;56.964;24.128;2023-04-19T09:00:36;9.98;;;4.68;;
7406;SDS011;3745;56.964;24.128;2023-04-19T09:03:03;6.07;;;4.10;;
7406;SDS011;3745;56.964;24.128;2023-04-19T09:05:31;6.95;;;4.70;;
7406;SDS011;3745;56.964;24.128;2023-04-19T09:10:52;10.20;;;4.93;;
7406;SDS011;3745;56.964;24.128;2023-04-19T09:13:25;6.07;;;4.30;;
7406;SDS011;3745;56.964;24.128;2023-04-19T09:15:51;6.32;;;4.47;;
7406;SDS011;3745;56.964;24.128;2023-04-19T09:18:21;4.60;;;3.83;;
7406;SDS011;3745;56.964;24.128;2023-04-19T09:20:49;7.05;;;4.63;;
7406;SDS011;3745;56.964;24.128;2023-04-19T09:23:22;6.38;;;4.43;;
7406;SDS011;3745;56.964;24.128;2023-04-19T09:25:55;7.55;;;4.72;;
7406;SDS011;3745;56.964;24.128;2023-04-19T09:28:22;7.97;;;5.00;;
7406;SDS011;3745;56.964;24.128;2023-04-19T09:30:48;4.60;;;4.20;;
7406;SDS011;3745;56.964;24.128;2023-04-19T09:33:31;7.65;;;4.85;;
7406;SDS011;3745;56.964;24.128;2023-04-19T09:36:03;10.70;;;4.85;;
7406;SDS011;3745;56.964;24.128;2023-04-19T09:38:45;8.85;;;4.35;;
7406;SDS011;3745;56.964;24.128;2023-04-19T09:41:13;7.45;;;4.10;;
7406;SDS011;3745;56.964;24.128;2023-04-19T09:43:39;5.05;;;4.55;;
7406;SDS011;3745;56.964;24.128;2023-04-19T09:46:04;5.47;;;4.50;;
7406;SDS011;3745;56.964;24.128;2023-04-19T09:48:30;6.63;;;4.65;;
7406;SDS011;3745;56.964;24.128;2023-04-19T09:50:57;7.75;;;5.10;;
7406;SDS011;3745;56.964;24.128;2023-04-19T09:53:26;6.60;;;4.93;;
7406;SDS011;3745;56.964;24.128;2023-04-19T09:55:53;6.57;;;5.20;;
7406;SDS011;3745;56.964;24.128;2023-04-19T09:58:19;8.30;;;4.95;;
7406;SDS011;3745;56.964;24.128;2023-04-19T10:00:46;9.63;;;5.05;;
7406;SDS011;3745;56.964;24.128;2023-04-19T10:03:15;10.65;;;5.28;;
7406;SDS011;3745;56.964;24.128;2023-04-19T10:05:42;5.72;;;4.85;;
7406;SDS011;3745;56.964;24.128;2023-04-19T10:08:10;12.55;;;5.18;;
7406;SDS011;3745;56.964;24.128;2023-04-19T10:10:40;6.35;;;5.03;;
7406;SDS011;3745;56.964;24.128;2023-04-19T10:13:12;8.57;;;5.00;;
7406;SDS011;3745;56.964;24.128;2023-04-19T10:15:42;9.40;;;5.55;;
7406;SDS011;3745;56.964;24.128;2023-04-19T10:18:09;7.00;;;5.07;;
7406;SDS011;3745;56.964;24.128;2023-04-19T10:23:05;11.77;;;5.70;;
7406;SDS011;3745;56.964;24.128;2023-04-19T10:25:35;5.88;;;5.38;;
7406;SDS011;3745;56.964;24.128;2023-04-19T10:28:01;11.43;;;5.78;;
7406;SDS011;3745;56.964;24.128;2023-04-19T10:30:27;5.00;;;4.65;;
7406;SDS011;3745;56.964;24.128;2023-04-19T10:32:56;23.10;;;6.63;;
7406;SDS011;3745;56.964;24.128;2023-04-19T10:35:27;15.38;;;5.80;;
7406;SDS011;3745;56.964;24.128;2023-04-19T10:38:14;7.97;;;5.30;;
7406;SDS011;3745;56.964;24.128;2023-04-19T10:40:59;9.23;;;5.53;;
7406;SDS011;3745;56.964;24.128;2023-04-19T10:45:51;7.60;;;4.80;;
7406;SDS011;3745;56.964;24.128;2023-04-19T10:48:30;8.27;;;5.07;;
7406;SDS011;3745;56.964;24.128;2023-04-19T10:51:03;7.15;;;5.03;;
7406;SDS011;3745;56.964;24.128;2023-04-19T10:56:13;13.85;;;6.13;;
7406;SDS011;3745;56.964;24.128;2023-04-19T11:01:36;7.72;;;5.22;;
7406;SDS011;3745;56.964;24.128;2023-04-19T11:06:36;5.97;;;5.43;;
7406;SDS011;3745;56.964;24.128;2023-04-19T11:09:03;6.53;;;5.60;;
7406;SDS011;3745;56.964;24.128;2023-04-19T11:11:35;6.55;;;4.93;;
7406;SDS011;3745;56.964;24.128;2023-04-19T11:14:01;16.65;;;5.95;;
7406;SDS011;3745;56.964;24.128;2023-04-19T11:16:28;55.13;;;7.70;;
7406;SDS011;3745;56.964;24.128;2023-04-19T11:18:57;11.60;;;5.63;;
7406;SDS011;3745;56.964;24.128;2023-04-19T11:21:22;7.85;;;4.90;;
7406;SDS011;3745;56.964;24.128;2023-04-19T11:23:48;11.00;;;5.18;;
7406;SDS011;3745;56.964;24.128;2023-04-19T11:26:29;11.75;;;5.57;;
7406;SDS011;3745;56.964;24.128;2023-04-19T11:28:55;15.05;;;5.38;;
7406;SDS011;3745;56.964;24.128;2023-04-19T11:31:21;10.23;;;5.40;;
7406;SDS011;3745;56.964;24.128;2023-04-19T11:33:47;12.38;;;5.72;;
7406;SDS011;3745;56.964;24.128;2023-04-19T11:36:13;8.23;;;5.20;;
7406;SDS011;3745;56.964;24.128;2023-04-19T11:38:38;8.27;;;5.35;;
7406;SDS011;3745;56.964;24.128;2023-04-19T11:41:04;8.45;;;5.15;;
7406;SDS011;3745;56.964;24.128;2023-04-19T11:43:36;5.70;;;4.72;;
7406;SDS011;3745;56.964;24.128;2023-04-19T11:46:08;8.35;;;6.00;;
7406;SDS011;3745;56.964;24.128;2023-04-19T11:48:35;6.63;;;5.13;;
7406;SDS011;3745;56.964;24.128;2023-04-19T11:51:01;19.00;;;5.93;;
7406;SDS011;3745;56.964;24.128;2023-04-19T11:53:28;16.80;;;5.95;;
7406;SDS011;3745;56.964;24.128;2023-04-19T11:56:08;7.03;;;5.43;;
7406;SDS011;3745;56.964;24.128;2023-04-19T11:58:38;7.85;;;4.97;;
7406;SDS011;3745;56.964;24.128;2023-04-19T12:01:06;19.80;;;6.03;;
7406;SDS011;3745;56.964;24.128;2023-04-19T12:03:33;9.20;;;5.78;;
7406;SDS011;3745;56.964;24.128;2023-04-19T12:06:03;6.28;;;5.07;;
7406;SDS011;3745;56.964;24.128;2023-04-19T12:08:36;5.60;;;5.10;;
7406;SDS011;3745;56.964;24.128;2023-04-19T12:11:03;6.85;;;4.95;;
7406;SDS011;3745;56.964;24.128;2023-04-19T12:13:30;5.80;;;5.18;;
7406;SDS011;3745;56.964;24.128;2023-04-19T12:15:57;6.78;;;4.88;;
7406;SDS011;3745;56.964;24.128;2023-04-19T12:18:23;6.55;;;5.07;;
7406;SDS011;3745;56.964;24.128;2023-04-19T12:20:50;18.60;;;5.00;;
7406;SDS011;3745;56.964;24.128;2023-04-19T12:23:16;12.25;;;5.20;;
7406;SDS011;3745;56.964;24.128;2023-04-19T12:25:44;8.07;;;5.25;;
7406;SDS011;3745;56.964;24.128;2023-04-19T12:28:11;11.38;;;5.45;;
7406;SDS011;3745;56.964;24.128;2023-04-19T12:30:38;8.02;;;5.05;;
7406;SDS011;3745;56.964;24.128;2023-04-19T12:33:07;7.28;;;4.97;;
7406;SDS011;3745;56.964;24.128;2023-04-19T12:35:34;7.70;;;5.20;;
7406;SDS011;3745;56.964;24.128;2023-04-19T12:38:00;5.40;;;4.90;;
7406;SDS011;3745;56.964;24.128;2023-04-19T12:40:28;26.77;;;5.65;;
7406;SDS011;3745;56.964;24.128;2023-04-19T12:42:55;11.30;;;5.13;;
7406;SDS011;3745;56.964;24.128;2023-04-19T12:45:21;6.28;;;5.18;;
7406;SDS011;3745;56.964;24.128;2023-04-19T12:47:47;11.10;;;5.20;;
7406;SDS011;3745;56.964;24.128;2023-04-19T12:50:13;7.85;;;5.20;;
7406;SDS011;3745;56.964;24.128;2023-04-19T12:52:40;7.75;;;5.00;;
7406;SDS011;3745;56.964;24.128;2023-04-19T12:55:10;6.43;;;5.05;;
7406;SDS011;3745;56.964;24.128;2023-04-19T12:57:36;15.55;;;5.95;;
7406;SDS011;3745;56.964;24.128;2023-04-19T13:00:01;10.95;;;4.80;;
7406;SDS011;3745;56.964;24.128;2023-04-19T13:02:29;6.25;;;5.03;;
7406;SDS011;3745;56.964;24.128;2023-04-19T13:04:55;6.22;;;5.60;;
7406;SDS011;3745;56.964;24.128;2023-04-19T13:07:21;9.27;;;5.28;;
7406;SDS011;3745;56.964;24.128;2023-04-19T13:09:47;8.82;;;5.45;;
7406;SDS011;3745;56.964;24.128;2023-04-19T13:12:12;18.17;;;6.50;;
7406;SDS011;3745;56.964;24.128;2023-04-19T13:14:38;8.25;;;5.18;;
7406;SDS011;3745;56.964;24.128;2023-04-19T13:17:07;9.15;;;5.53;;
7406;SDS011;3745;56.964;24.128;2023-04-19T13:19:33;6.07;;;5.30;;
7406;SDS011;3745;56.964;24.128;2023-04-19T13:21:59;7.43;;;5.32;;
7406;SDS011;3745;56.964;24.128;2023-04-19T13:24:25;6.10;;;5.50;;
7406;SDS011;3745;56.964;24.128;2023-04-19T13:26:51;9.30;;;4.93;;
7406;SDS011;3745;56.964;24.128;2023-04-19T13:29:18;7.65;;;5.68;;
7406;SDS011;3745;56.964;24.128;2023-04-19T13:31:45;7.28;;;5.70;;
7406;SDS011;3745;56.964;24.128;2023-04-19T13:34:11;6.00;;;5.22;;
7406;SDS011;3745;56.964;24.128;2023-04-19T13:36:36;9.30;;;5.50;;
7406;SDS011;3745;56.964;24.128;2023-04-19T13:39:03;7.40;;;6.15;;
7406;SDS011;3745;56.964;24.128;2023-04-19T13:41:29;9.85;;;5.57;;
7406;SDS011;3745;56.964;24.128;2023-04-19T13:43:55;8.07;;;5.67;;
7406;SDS011;3745;56.964;24.128;2023-04-19T13:46:20;10.40;;;5.35;;
7406;SDS011;3745;56.964;24.128;2023-04-19T13:48:46;7.38;;;5.40;;
7406;SDS011;3745;56.964;24.128;2023-04-19T13:51:11;8.23;;;5.60;;
7406;SDS011;3745;56.964;24.128;2023-04-19T13:53:37;8.10;;;5.90;;
7406;SDS011;3745;56.964;24.128;2023-04-19T13:56:05;7.17;;;5.70;;
7406;SDS011;3745;56.964;24.128;2023-04-19T13:58:33;11.15;;;5.75;;
7406;SDS011;3745;56.964;24.128;2023-04-19T14:01:00;9.10;;;5.30;;
7406;SDS011;3745;56.964;24.128;2023-04-19T14:03:25;6.85;;;5.35;;
7406;SDS011;3745;56.964;24.128;2023-04-19T14:05:51;9.60;;;5.50;;
7406;SDS011;3745;56.964;24.128;2023-04-19T14:08:16;8.85;;;5.80;;
7406;SDS011;3745;56.964;24.128;2023-04-19T14:10:42;9.03;;;6.00;;
7406;SDS011;3745;56.964;24.128;2023-04-19T14:13:08;8.80;;;5.57;;
7406;SDS011;3745;56.964;24.128;2023-04-19T14:15:33;7.15;;;5.00;;
7406;SDS011;3745;56.964;24.128;2023-04-19T14:17:59;7.77;;;5.40;;
7406;SDS011;3745;56.964;24.128;2023-04-19T14:20:24;6.30;;;5.13;;
7406;SDS011;3745;56.964;24.128;2023-04-19T14:22:50;11.52;;;5.80;;
7406;SDS011;3745;56.964;24.128;2023-04-19T14:25:16;5.85;;;5.35;;
7406;SDS011;3745;56.964;24.128;2023-04-19T14:27:44;9.02;;;6.00;;
7406;SDS011;3745;56.964;24.128;2023-04-19T14:30:09;6.95;;;5.22;;
7406;SDS011;3745;56.964;24.128;2023-04-19T14:32:35;7.60;;;5.53;;
7406;SDS011;3745;56.964;24.128;2023-04-19T14:35:01;7.18;;;5.35;;
7406;SDS011;3745;56.964;24.128;2023-04-19T14:37:27;11.55;;;5.43;;
7406;SDS011;3745;56.964;24.128;2023-04-19T14:39:52;7.15;;;5.10;;
7406;SDS011;3745;56.964;24.128;2023-04-19T14:42:18;5.28;;;4.80;;
7406;SDS011;3745;56.964;24.128;2023-04-19T14:44:44;8.98;;;5.38;;
7406;SDS011;3745;56.964;24.128;2023-04-19T14:47:11;7.80;;;5.32;;
7406;SDS011;3745;56.964;24.128;2023-04-19T14:49:37;5.60;;;4.95;;
7406;SDS011;3745;56.964;24.128;2023-04-19T14:52:05;12.52;;;5.22;;
7406;SDS011;3745;56.964;24.128;2023-04-19T14:54:31;7.15;;;4.95;;
7406;SDS011;3745;56.964;24.128;2023-04-19T14:56:56;8.27;;;5.25;;
7406;SDS011;3745;56.964;24.128;2023-04-19T14:59:22;6.32;;;5.30;;
7406;SDS011;3745;56.964;24.128;2023-04-19T15:01:47;7.65;;;5.32;;
7406;SDS011;3745;56.964;24.128;2023-04-19T15:04:13;9.05;;;4.80;;
7406;SDS011;3745;56.964;24.128;2023-04-19T15:06:38;9.13;;;4.80;;
7406;SDS011;3745;56.964;24.128;2023-04-19T15:09:05;88.47;;;9.02;;
7406;SDS011;3745;56.964;24.128;2023-04-19T15:11:34;15.57;;;5.13;;
7406;SDS011;3745;56.964;24.128;2023-04-19T15:14:00;10.00;;;5.35;;
7406;SDS011;3745;56.964;24.128;2023-04-19T15:16:26;13.32;;;4.88;;